sensor_id;sensor_type;location;lat;lon;timestamp;P1;durP1;ratioP1;P2;durP2;ratioP2
80163;SDS011;70071;55.130;61.268;2024-01-25T00:01:47;18.50;;;8.93;;
80163;SDS011;70071;55.130;61.268;2024-01-25T00:04:13;23.02;;;10.52;;
80163;SDS011;70071;55.130;61.268;2024-01-25T00:06:39;20.25;;;7.45;;
80163;SDS011;70071;55.130;61.268;2024-01-25T00:09:11;6.55;;;3.28;;
80163;SDS011;70071;55.130;61.268;2024-01-25T00:12:49;4.75;;;1.80;;
80163;SDS011;70071;55.130;61.268;2024-01-25T00:15:16;9.35;;;3.58;;
80163;SDS011;70071;55.130;61.268;2024-01-25T00:17:42;15.27;;;7.05;;
80163;SDS011;70071;55.130;61.268;2024-01-25T00:20:09;17.45;;;7.63;;
80163;SDS011;70071;55.130;61.268;2024-01-25T00:22:35;19.10;;;8.05;;
80163;SDS011;70071;55.130;61.268;2024-01-25T00:27:30;18.38;;;8.05;;
80163;SDS011;70071;55.130;61.268;2024-01-25T00:29:56;14.98;;;8.23;;
80163;SDS011;70071;55.130;61.268;2024-01-25T00:32:22;14.15;;;7.43;;
80163;SDS011;70071;55.130;61.268;2024-01-25T00:34:48;15.75;;;7.35;;
80163;SDS011;70071;55.130;61.268;2024-01-25T00:37:14;17.27;;;7.65;;
80163;SDS011;70071;55.130;61.268;2024-01-25T00:39:41;18.30;;;8.98;;
80163;SDS011;70071;55.130;61.268;2024-01-25T00:42:07;16.15;;;7.00;;
80163;SDS011;70071;55.130;61.268;2024-01-25T00:44:37;15.95;;;7.45;;
80163;SDS011;70071;55.130;61.268;2024-01-25T00:47:03;17.58;;;7.47;;
80163;SDS011;70071;55.130;61.268;2024-01-25T00:49:30;17.95;;;7.50;;
80163;SDS011;70071;55.130;61.268;2024-01-25T00:51:58;15.27;;;7.70;;
80163;SDS011;70071;55.130;61.268;2024-01-25T00:54:25;15.02;;;7.82;;
80163;SDS011;70071;55.130;61.268;2024-01-25T00:56:51;16.23;;;7.78;;
80163;SDS011;70071;55.130;61.268;2024-01-25T00:59:19;18.35;;;7.55;;
80163;SDS011;70071;55.130;61.268;2024-01-25T01:04:12;15.35;;;7.63;;
80163;SDS011;70071;55.130;61.268;2024-01-25T01:06:39;19.02;;;8.93;;
80163;SDS011;70071;55.130;61.268;2024-01-25T01:09:05;19.40;;;9.20;;
80163;SDS011;70071;55.130;61.268;2024-01-25T01:11:31;22.20;;;9.55;;
80163;SDS011;70071;55.130;61.268;2024-01-25T01:16:51;18.95;;;9.70;;
80163;SDS011;70071;55.130;61.268;2024-01-25T01:19:47;20.10;;;10.98;;
80163;SDS011;70071;55.130;61.268;2024-01-25T01:22:14;23.88;;;9.98;;
80163;SDS011;70071;55.130;61.268;2024-01-25T01:28:04;21.83;;;10.13;;
80163;SDS011;70071;55.130;61.268;2024-01-25T01:30:30;22.67;;;10.10;;
80163;SDS011;70071;55.130;61.268;2024-01-25T01:32:56;26.40;;;12.88;;
80163;SDS011;70071;55.130;61.268;2024-01-25T01:35:24;20.52;;;9.55;;
80163;SDS011;70071;55.130;61.268;2024-01-25T01:37:50;19.75;;;9.77;;
80163;SDS011;70071;55.130;61.268;2024-01-25T01:40:16;19.60;;;8.57;;
80163;SDS011;70071;55.130;61.268;2024-01-25T01:42:42;20.67;;;8.95;;
80163;SDS011;70071;55.130;61.268;2024-01-25T01:45:08;17.50;;;8.27;;
80163;SDS011;70071;55.130;61.268;2024-01-25T01:47:37;16.70;;;8.40;;
80163;SDS011;70071;55.130;61.268;2024-01-25T01:50:03;19.80;;;8.18;;
80163;SDS011;70071;55.130;61.268;2024-01-25T01:52:30;18.75;;;8.25;;
80163;SDS011;70071;55.130;61.268;2024-01-25T01:54:56;18.20;;;8.23;;
80163;SDS011;70071;55.130;61.268;2024-01-25T01:57:22;17.33;;;7.57;;
80163;SDS011;70071;55.130;61.268;2024-01-25T01:59:49;12.82;;;5.97;;
80163;SDS011;70071;55.130;61.268;2024-01-25T02:02:15;12.60;;;6.35;;
80163;SDS011;70071;55.130;61.268;2024-01-25T02:04:42;16.05;;;6.82;;
80163;SDS011;70071;55.130;61.268;2024-01-25T02:07:09;13.10;;;6.15;;
80163;SDS011;70071;55.130;61.268;2024-01-25T02:09:36;13.45;;;5.03;;
80163;SDS011;70071;55.130;61.268;2024-01-25T02:12:02;11.20;;;5.97;;
80163;SDS011;70071;55.130;61.268;2024-01-25T02:14:28;13.63;;;6.20;;
80163;SDS011;70071;55.130;61.268;2024-01-25T02:19:21;17.58;;;7.85;;
80163;SDS011;70071;55.130;61.268;2024-01-25T02:21:48;19.80;;;9.25;;
80163;SDS011;70071;55.130;61.268;2024-01-25T02:24:17;18.27;;;8.43;;
80163;SDS011;70071;55.130;61.268;2024-01-25T02:26:43;23.48;;;10.13;;
80163;SDS011;70071;55.130;61.268;2024-01-25T02:29:09;21.63;;;10.13;;
80163;SDS011;70071;55.130;61.268;2024-01-25T02:31:35;22.92;;;10.32;;
80163;SDS011;70071;55.130;61.268;2024-01-25T02:41:36;17.08;;;8.70;;
80163;SDS011;70071;55.130;61.268;2024-01-25T02:44:06;16.73;;;8.77;;
80163;SDS011;70071;55.130;61.268;2024-01-25T02:46:35;13.57;;;6.53;;
80163;SDS011;70071;55.130;61.268;2024-01-25T02:53:08;12.32;;;5.90;;
80163;SDS011;70071;55.130;61.268;2024-01-25T02:55:34;12.10;;;6.10;;
80163;SDS011;70071;55.130;61.268;2024-01-25T02:58:00;12.20;;;6.13;;
80163;SDS011;70071;55.130;61.268;2024-01-25T03:00:26;13.60;;;7.13;;
80163;SDS011;70071;55.130;61.268;2024-01-25T03:02:52;12.40;;;6.95;;
80163;SDS011;70071;55.130;61.268;2024-01-25T03:05:18;14.05;;;5.65;;
80163;SDS011;70071;55.130;61.268;2024-01-25T03:07:44;11.82;;;6.10;;
80163;SDS011;70071;55.130;61.268;2024-01-25T03:10:11;14.88;;;6.88;;
80163;SDS011;70071;55.130;61.268;2024-01-25T03:12:37;16.00;;;7.63;;
80163;SDS011;70071;55.130;61.268;2024-01-25T03:15:03;13.10;;;6.38;;
80163;SDS011;70071;55.130;61.268;2024-01-25T03:17:47;18.90;;;9.57;;
80163;SDS011;70071;55.130;61.268;2024-01-25T03:20:13;19.70;;;10.10;;
80163;SDS011;70071;55.130;61.268;2024-01-25T03:22:40;20.48;;;10.55;;
80163;SDS011;70071;55.130;61.268;2024-01-25T03:25:06;28.23;;;18.38;;
80163;SDS011;70071;55.130;61.268;2024-01-25T03:27:34;20.88;;;11.13;;
80163;SDS011;70071;55.130;61.268;2024-01-25T03:30:00;24.23;;;12.18;;
80163;SDS011;70071;55.130;61.268;2024-01-25T03:32:30;24.45;;;11.35;;
80163;SDS011;70071;55.130;61.268;2024-01-25T03:34:55;22.73;;;11.75;;
80163;SDS011;70071;55.130;61.268;2024-01-25T03:37:21;23.02;;;12.75;;
80163;SDS011;70071;55.130;61.268;2024-01-25T03:39:49;21.98;;;11.15;;
80163;SDS011;70071;55.130;61.268;2024-01-25T03:45:02;18.67;;;9.27;;
80163;SDS011;70071;55.130;61.268;2024-01-25T03:47:34;21.55;;;10.55;;
80163;SDS011;70071;55.130;61.268;2024-01-25T03:50:09;18.83;;;8.98;;
80163;SDS011;70071;55.130;61.268;2024-01-25T03:52:54;21.48;;;9.80;;
80163;SDS011;70071;55.130;61.268;2024-01-25T03:55:22;18.77;;;9.20;;
80163;SDS011;70071;55.130;61.268;2024-01-25T03:57:48;21.33;;;9.20;;
80163;SDS011;70071;55.130;61.268;2024-01-25T04:00:15;21.17;;;10.43;;
80163;SDS011;70071;55.130;61.268;2024-01-25T04:02:42;20.70;;;10.40;;
80163;SDS011;70071;55.130;61.268;2024-01-25T04:05:08;18.30;;;9.63;;
80163;SDS011;70071;55.130;61.268;2024-01-25T04:07:39;18.38;;;9.80;;
80163;SDS011;70071;55.130;61.268;2024-01-25T04:10:22;18.85;;;10.00;;
80163;SDS011;70071;55.130;61.268;2024-01-25T04:12:49;18.75;;;9.57;;
80163;SDS011;70071;55.130;61.268;2024-01-25T04:15:33;18.90;;;9.18;;
80163;SDS011;70071;55.130;61.268;2024-01-25T04:18:03;18.35;;;9.60;;
80163;SDS011;70071;55.130;61.268;2024-01-25T04:20:33;20.38;;;10.32;;
80163;SDS011;70071;55.130;61.268;2024-01-25T04:22:59;20.27;;;10.50;;
80163;SDS011;70071;55.130;61.268;2024-01-25T04:25:25;24.35;;;11.45;;
80163;SDS011;70071;55.130;61.268;2024-01-25T04:27:51;25.75;;;11.32;;
80163;SDS011;70071;55.130;61.268;2024-01-25T04:30:18;28.08;;;12.10;;
80163;SDS011;70071;55.130;61.268;2024-01-25T04:32:44;28.67;;;14.07;;
80163;SDS011;70071;55.130;61.268;2024-01-25T04:35:10;29.20;;;13.13;;
80163;SDS011;70071;55.130;61.268;2024-01-25T04:37:44;28.85;;;13.00;;
80163;SDS011;70071;55.130;61.268;2024-01-25T04:40:19;30.38;;;17.30;;
80163;SDS011;70071;55.130;61.268;2024-01-25T04:42:45;31.83;;;19.13;;
80163;SDS011;70071;55.130;61.268;2024-01-25T04:45:21;26.83;;;12.15;;
80163;SDS011;70071;55.130;61.268;2024-01-25T04:50:13;21.42;;;10.63;;
80163;SDS011;70071;55.130;61.268;2024-01-25T04:55:10;26.23;;;12.63;;
80163;SDS011;70071;55.130;61.268;2024-01-25T04:57:41;23.13;;;11.75;;
80163;SDS011;70071;55.130;61.268;2024-01-25T05:00:09;21.48;;;11.55;;
80163;SDS011;70071;55.130;61.268;2024-01-25T05:03:05;28.05;;;11.70;;
80163;SDS011;70071;55.130;61.268;2024-01-25T05:05:31;26.45;;;12.75;;
80163;SDS011;70071;55.130;61.268;2024-01-25T05:07:57;24.60;;;10.88;;
80163;SDS011;70071;55.130;61.268;2024-01-25T05:10:23;20.23;;;9.52;;
80163;SDS011;70071;55.130;61.268;2024-01-25T05:12:58;22.92;;;10.75;;
80163;SDS011;70071;55.130;61.268;2024-01-25T05:15:24;17.95;;;10.02;;
80163;SDS011;70071;55.130;61.268;2024-01-25T05:17:50;18.33;;;8.95;;
80163;SDS011;70071;55.130;61.268;2024-01-25T05:20:16;17.58;;;9.02;;
80163;SDS011;70071;55.130;61.268;2024-01-25T05:22:45;19.33;;;9.63;;
80163;SDS011;70071;55.130;61.268;2024-01-25T05:25:11;22.70;;;10.70;;
80163;SDS011;70071;55.130;61.268;2024-01-25T05:27:39;23.42;;;11.90;;
80163;SDS011;70071;55.130;61.268;2024-01-25T05:30:08;25.27;;;11.10;;
80163;SDS011;70071;55.130;61.268;2024-01-25T05:32:38;22.85;;;11.43;;
80163;SDS011;70071;55.130;61.268;2024-01-25T05:35:06;21.70;;;11.75;;
80163;SDS011;70071;55.130;61.268;2024-01-25T05:37:33;20.88;;;11.75;;
80163;SDS011;70071;55.130;61.268;2024-01-25T05:39:59;24.02;;;11.75;;
80163;SDS011;70071;55.130;61.268;2024-01-25T05:42:27;23.98;;;11.27;;
80163;SDS011;70071;55.130;61.268;2024-01-25T05:44:53;19.38;;;10.77;;
80163;SDS011;70071;55.130;61.268;2024-01-25T05:47:19;16.55;;;8.38;;
80163;SDS011;70071;55.130;61.268;2024-01-25T05:49:48;15.40;;;8.00;;
80163;SDS011;70071;55.130;61.268;2024-01-25T05:52:14;14.88;;;7.57;;
80163;SDS011;70071;55.130;61.268;2024-01-25T05:54:40;12.38;;;6.25;;
80163;SDS011;70071;55.130;61.268;2024-01-25T05:57:06;10.40;;;5.45;;
80163;SDS011;70071;55.130;61.268;2024-01-25T05:59:32;12.43;;;5.90;;
80163;SDS011;70071;55.130;61.268;2024-01-25T06:01:58;12.95;;;6.75;;
80163;SDS011;70071;55.130;61.268;2024-01-25T06:04:24;12.10;;;5.78;;
80163;SDS011;70071;55.130;61.268;2024-01-25T06:06:50;12.60;;;6.38;;
80163;SDS011;70071;55.130;61.268;2024-01-25T06:09:16;9.48;;;5.95;;
80163;SDS011;70071;55.130;61.268;2024-01-25T06:11:42;13.80;;;6.80;;
80163;SDS011;70071;55.130;61.268;2024-01-25T06:14:11;15.80;;;7.35;;
80163;SDS011;70071;55.130;61.268;2024-01-25T06:16:37;17.35;;;7.95;;
80163;SDS011;70071;55.130;61.268;2024-01-25T06:19:03;11.07;;;5.55;;
80163;SDS011;70071;55.130;61.268;2024-01-25T06:21:29;8.32;;;4.32;;
80163;SDS011;70071;55.130;61.268;2024-01-25T06:23:55;6.63;;;3.05;;
80163;SDS011;70071;55.130;61.268;2024-01-25T06:26:24;6.30;;;2.88;;
80163;SDS011;70071;55.130;61.268;2024-01-25T06:28:50;5.90;;;2.08;;
80163;SDS011;70071;55.130;61.268;2024-01-25T06:31:16;6.72;;;2.55;;
80163;SDS011;70071;55.130;61.268;2024-01-25T06:33:43;4.43;;;2.00;;
80163;SDS011;70071;55.130;61.268;2024-01-25T06:36:12;5.43;;;2.17;;
80163;SDS011;70071;55.130;61.268;2024-01-25T06:38:40;4.38;;;2.70;;
80163;SDS011;70071;55.130;61.268;2024-01-25T06:41:07;5.80;;;3.20;;
80163;SDS011;70071;55.130;61.268;2024-01-25T06:43:33;5.55;;;3.53;;
80163;SDS011;70071;55.130;61.268;2024-01-25T06:45:59;5.88;;;3.40;;
80163;SDS011;70071;55.130;61.268;2024-01-25T06:48:25;6.95;;;4.35;;
80163;SDS011;70071;55.130;61.268;2024-01-25T06:50:51;8.43;;;4.20;;
80163;SDS011;70071;55.130;61.268;2024-01-25T06:53:20;7.07;;;4.00;;
80163;SDS011;70071;55.130;61.268;2024-01-25T06:55:47;8.88;;;4.50;;
80163;SDS011;70071;55.130;61.268;2024-01-25T06:58:13;5.00;;;3.53;;
80163;SDS011;70071;55.130;61.268;2024-01-25T07:00:39;7.47;;;4.10;;
80163;SDS011;70071;55.130;61.268;2024-01-25T07:03:07;6.78;;;4.03;;
80163;SDS011;70071;55.130;61.268;2024-01-25T07:05:33;5.13;;;3.30;;
80163;SDS011;70071;55.130;61.268;2024-01-25T07:08:01;7.80;;;3.85;;
80163;SDS011;70071;55.130;61.268;2024-01-25T07:10:28;6.20;;;3.78;;
80163;SDS011;70071;55.130;61.268;2024-01-25T07:12:54;6.45;;;4.50;;
80163;SDS011;70071;55.130;61.268;2024-01-25T07:15:20;6.07;;;3.70;;
80163;SDS011;70071;55.130;61.268;2024-01-25T07:17:46;5.32;;;3.50;;
80163;SDS011;70071;55.130;61.268;2024-01-25T07:20:12;6.82;;;3.47;;
80163;SDS011;70071;55.130;61.268;2024-01-25T07:22:38;6.35;;;3.50;;
80163;SDS011;70071;55.130;61.268;2024-01-25T07:25:05;6.30;;;3.40;;
80163;SDS011;70071;55.130;61.268;2024-01-25T07:27:31;8.48;;;4.00;;
80163;SDS011;70071;55.130;61.268;2024-01-25T07:29:58;13.57;;;4.20;;
80163;SDS011;70071;55.130;61.268;2024-01-25T07:32:24;8.02;;;4.65;;
80163;SDS011;70071;55.130;61.268;2024-01-25T07:34:50;10.00;;;4.75;;
80163;SDS011;70071;55.130;61.268;2024-01-25T07:37:16;10.98;;;5.40;;
80163;SDS011;70071;55.130;61.268;2024-01-25T07:39:44;12.73;;;4.97;;
80163;SDS011;70071;55.130;61.268;2024-01-25T07:42:11;11.55;;;5.50;;
80163;SDS011;70071;55.130;61.268;2024-01-25T07:44:37;12.40;;;6.13;;
80163;SDS011;70071;55.130;61.268;2024-01-25T07:47:03;13.88;;;5.53;;
80163;SDS011;70071;55.130;61.268;2024-01-25T07:49:31;12.88;;;5.38;;
80163;SDS011;70071;55.130;61.268;2024-01-25T07:51:57;13.27;;;7.40;;
80163;SDS011;70071;55.130;61.268;2024-01-25T07:54:23;24.65;;;12.60;;
80163;SDS011;70071;55.130;61.268;2024-01-25T07:56:49;7.93;;;5.07;;
80163;SDS011;70071;55.130;61.268;2024-01-25T07:59:16;9.32;;;4.93;;
80163;SDS011;70071;55.130;61.268;2024-01-25T08:01:42;11.18;;;6.10;;
80163;SDS011;70071;55.130;61.268;2024-01-25T08:04:08;9.20;;;3.70;;
80163;SDS011;70071;55.130;61.268;2024-01-25T08:09:21;8.30;;;3.03;;
80163;SDS011;70071;55.130;61.268;2024-01-25T08:11:47;5.88;;;2.47;;
80163;SDS011;70071;55.130;61.268;2024-01-25T08:14:13;6.45;;;2.90;;
80163;SDS011;70071;55.130;61.268;2024-01-25T08:16:39;6.07;;;2.95;;
80163;SDS011;70071;55.130;61.268;2024-01-25T08:21:32;5.82;;;2.35;;
80163;SDS011;70071;55.130;61.268;2024-01-25T08:23:58;5.00;;;2.50;;
80163;SDS011;70071;55.130;61.268;2024-01-25T08:26:24;4.68;;;2.22;;
80163;SDS011;70071;55.130;61.268;2024-01-25T08:28:51;5.07;;;2.50;;
80163;SDS011;70071;55.130;61.268;2024-01-25T08:31:17;4.00;;;2.17;;
80163;SDS011;70071;55.130;61.268;2024-01-25T08:33:43;6.40;;;3.33;;
80163;SDS011;70071;55.130;61.268;2024-01-25T08:36:18;6.18;;;2.28;;
80163;SDS011;70071;55.130;61.268;2024-01-25T08:38:44;6.03;;;2.03;;
80163;SDS011;70071;55.130;61.268;2024-01-25T08:41:10;5.47;;;1.88;;
80163;SDS011;70071;55.130;61.268;2024-01-25T08:43:37;4.65;;;2.10;;
80163;SDS011;70071;55.130;61.268;2024-01-25T08:46:03;3.33;;;1.90;;
80163;SDS011;70071;55.130;61.268;2024-01-25T08:48:30;3.92;;;2.90;;
80163;SDS011;70071;55.130;61.268;2024-01-25T08:50:55;2.83;;;1.77;;
80163;SDS011;70071;55.130;61.268;2024-01-25T08:53:21;4.88;;;1.95;;
80163;SDS011;70071;55.130;61.268;2024-01-25T08:55:52;3.28;;;1.70;;
80163;SDS011;70071;55.130;61.268;2024-01-25T08:58:19;4.30;;;2.00;;
80163;SDS011;70071;55.130;61.268;2024-01-25T09:00:45;4.53;;;2.08;;
80163;SDS011;70071;55.130;61.268;2024-01-25T09:03:11;4.65;;;2.30;;
80163;SDS011;70071;55.130;61.268;2024-01-25T09:05:37;6.22;;;1.75;;
80163;SDS011;70071;55.130;61.268;2024-01-25T09:08:13;8.38;;;3.97;;
80163;SDS011;70071;55.130;61.268;2024-01-25T09:10:40;4.28;;;2.08;;
80163;SDS011;70071;55.130;61.268;2024-01-25T09:13:07;3.92;;;1.88;;
80163;SDS011;70071;55.130;61.268;2024-01-25T09:15:34;3.40;;;2.00;;
80163;SDS011;70071;55.130;61.268;2024-01-25T09:18:00;3.50;;;1.80;;
80163;SDS011;70071;55.130;61.268;2024-01-25T09:20:26;5.93;;;3.22;;
80163;SDS011;70071;55.130;61.268;2024-01-25T09:22:52;5.65;;;2.80;;
80163;SDS011;70071;55.130;61.268;2024-01-25T09:25:21;5.03;;;2.85;;
80163;SDS011;70071;55.130;61.268;2024-01-25T09:27:47;6.03;;;2.83;;
80163;SDS011;70071;55.130;61.268;2024-01-25T09:30:13;4.88;;;2.53;;
80163;SDS011;70071;55.130;61.268;2024-01-25T09:32:40;4.35;;;2.25;;
80163;SDS011;70071;55.130;61.268;2024-01-25T09:35:06;3.88;;;1.65;;
80163;SDS011;70071;55.130;61.268;2024-01-25T09:37:33;2.92;;;2.00;;
80163;SDS011;70071;55.130;61.268;2024-01-25T09:39:59;3.42;;;1.80;;
80163;SDS011;70071;55.130;61.268;2024-01-25T09:42:25;2.92;;;1.42;;
80163;SDS011;70071;55.130;61.268;2024-01-25T09:48:03;3.92;;;2.15;;
80163;SDS011;70071;55.130;61.268;2024-01-25T09:50:30;3.97;;;2.05;;
80163;SDS011;70071;55.130;61.268;2024-01-25T09:52:59;6.25;;;2.17;;
80163;SDS011;70071;55.130;61.268;2024-01-25T09:55:26;6.18;;;2.53;;
80163;SDS011;70071;55.130;61.268;2024-01-25T09:57:53;4.20;;;2.65;;
80163;SDS011;70071;55.130;61.268;2024-01-25T10:00:23;4.25;;;2.35;;
80163;SDS011;70071;55.130;61.268;2024-01-25T10:02:49;4.00;;;2.20;;
80163;SDS011;70071;55.130;61.268;2024-01-25T10:05:18;5.10;;;2.35;;
80163;SDS011;70071;55.130;61.268;2024-01-25T10:07:45;4.80;;;2.42;;
80163;SDS011;70071;55.130;61.268;2024-01-25T10:10:12;7.28;;;2.80;;
80163;SDS011;70071;55.130;61.268;2024-01-25T10:12:40;5.82;;;2.83;;
80163;SDS011;70071;55.130;61.268;2024-01-25T10:15:07;5.00;;;2.90;;
80163;SDS011;70071;55.130;61.268;2024-01-25T10:17:34;4.70;;;3.13;;
80163;SDS011;70071;55.130;61.268;2024-01-25T10:20:00;8.80;;;2.65;;
80163;SDS011;70071;55.130;61.268;2024-01-25T10:22:27;6.20;;;3.42;;
80163;SDS011;70071;55.130;61.268;2024-01-25T10:24:53;7.68;;;3.67;;
80163;SDS011;70071;55.130;61.268;2024-01-25T10:27:20;6.20;;;3.70;;
80163;SDS011;70071;55.130;61.268;2024-01-25T10:29:48;6.88;;;3.67;;
80163;SDS011;70071;55.130;61.268;2024-01-25T10:32:16;5.97;;;3.50;;
80163;SDS011;70071;55.130;61.268;2024-01-25T10:34:42;5.22;;;2.78;;
80163;SDS011;70071;55.130;61.268;2024-01-25T10:37:10;8.05;;;3.33;;
80163;SDS011;70071;55.130;61.268;2024-01-25T10:39:41;5.85;;;3.53;;
80163;SDS011;70071;55.130;61.268;2024-01-25T10:42:08;7.95;;;3.35;;
80163;SDS011;70071;55.130;61.268;2024-01-25T10:44:34;8.13;;;3.55;;
80163;SDS011;70071;55.130;61.268;2024-01-25T10:47:00;7.05;;;3.67;;
80163;SDS011;70071;55.130;61.268;2024-01-25T10:49:27;7.35;;;4.30;;
80163;SDS011;70071;55.130;61.268;2024-01-25T10:51:54;4.78;;;3.17;;
80163;SDS011;70071;55.130;61.268;2024-01-25T10:54:21;7.00;;;3.95;;
80163;SDS011;70071;55.130;61.268;2024-01-25T10:56:47;6.80;;;3.65;;
80163;SDS011;70071;55.130;61.268;2024-01-25T10:59:13;7.20;;;3.80;;
80163;SDS011;70071;55.130;61.268;2024-01-25T11:01:47;8.82;;;4.60;;
80163;SDS011;70071;55.130;61.268;2024-01-25T11:04:17;6.03;;;3.75;;
80163;SDS011;70071;55.130;61.268;2024-01-25T11:06:45;7.47;;;3.75;;
80163;SDS011;70071;55.130;61.268;2024-01-25T11:09:16;8.68;;;3.85;;
80163;SDS011;70071;55.130;61.268;2024-01-25T11:11:47;6.45;;;3.92;;
80163;SDS011;70071;55.130;61.268;2024-01-25T11:14:14;7.53;;;3.60;;
80163;SDS011;70071;55.130;61.268;2024-01-25T11:16:43;8.35;;;4.53;;
80163;SDS011;70071;55.130;61.268;2024-01-25T11:19:22;7.28;;;3.45;;
80163;SDS011;70071;55.130;61.268;2024-01-25T11:21:49;10.15;;;4.53;;
80163;SDS011;70071;55.130;61.268;2024-01-25T11:24:16;7.25;;;3.80;;
80163;SDS011;70071;55.130;61.268;2024-01-25T11:26:47;7.35;;;3.42;;
80163;SDS011;70071;55.130;61.268;2024-01-25T11:29:14;6.55;;;3.35;;
80163;SDS011;70071;55.130;61.268;2024-01-25T11:31:46;6.10;;;3.45;;
80163;SDS011;70071;55.130;61.268;2024-01-25T11:34:14;5.85;;;3.25;;
80163;SDS011;70071;55.130;61.268;2024-01-25T11:36:47;5.85;;;3.05;;
80163;SDS011;70071;55.130;61.268;2024-01-25T11:39:13;5.75;;;3.53;;
80163;SDS011;70071;55.130;61.268;2024-01-25T11:41:41;8.20;;;3.03;;
80163;SDS011;70071;55.130;61.268;2024-01-25T11:44:11;6.07;;;3.03;;
80163;SDS011;70071;55.130;61.268;2024-01-25T11:46:37;7.03;;;2.95;;
80163;SDS011;70071;55.130;61.268;2024-01-25T11:49:03;6.50;;;3.08;;
80163;SDS011;70071;55.130;61.268;2024-01-25T11:51:29;4.63;;;2.75;;
80163;SDS011;70071;55.130;61.268;2024-01-25T11:53:56;5.30;;;2.80;;
80163;SDS011;70071;55.130;61.268;2024-01-25T11:56:29;7.40;;;3.10;;
80163;SDS011;70071;55.130;61.268;2024-01-25T11:58:58;8.52;;;3.88;;
80163;SDS011;70071;55.130;61.268;2024-01-25T12:01:25;5.68;;;3.58;;
80163;SDS011;70071;55.130;61.268;2024-01-25T12:03:52;8.10;;;3.25;;
80163;SDS011;70071;55.130;61.268;2024-01-25T12:08:44;7.28;;;3.45;;
80163;SDS011;70071;55.130;61.268;2024-01-25T12:11:13;7.38;;;3.45;;
80163;SDS011;70071;55.130;61.268;2024-01-25T12:13:40;8.30;;;3.20;;
80163;SDS011;70071;55.130;61.268;2024-01-25T12:16:10;6.10;;;3.25;;
80163;SDS011;70071;55.130;61.268;2024-01-25T12:18:41;7.75;;;3.00;;
80163;SDS011;70071;55.130;61.268;2024-01-25T12:21:08;5.53;;;3.00;;
80163;SDS011;70071;55.130;61.268;2024-01-25T12:23:38;7.63;;;3.25;;
80163;SDS011;70071;55.130;61.268;2024-01-25T12:26:10;4.82;;;2.45;;
80163;SDS011;70071;55.130;61.268;2024-01-25T12:28:37;4.60;;;2.30;;
80163;SDS011;70071;55.130;61.268;2024-01-25T12:31:04;6.57;;;2.88;;
80163;SDS011;70071;55.130;61.268;2024-01-25T12:33:32;3.72;;;2.42;;
80163;SDS011;70071;55.130;61.268;2024-01-25T12:36:18;12.35;;;6.15;;
80163;SDS011;70071;55.130;61.268;2024-01-25T12:38:44;11.70;;;6.45;;
80163;SDS011;70071;55.130;61.268;2024-01-25T12:41:10;7.00;;;3.30;;
80163;SDS011;70071;55.130;61.268;2024-01-25T12:43:36;8.40;;;4.05;;
80163;SDS011;70071;55.130;61.268;2024-01-25T12:46:02;7.32;;;3.35;;
80163;SDS011;70071;55.130;61.268;2024-01-25T12:48:28;6.15;;;2.97;;
80163;SDS011;70071;55.130;61.268;2024-01-25T12:50:54;9.43;;;4.13;;
80163;SDS011;70071;55.130;61.268;2024-01-25T12:53:21;10.10;;;5.72;;
80163;SDS011;70071;55.130;61.268;2024-01-25T12:55:48;11.43;;;6.90;;
80163;SDS011;70071;55.130;61.268;2024-01-25T12:58:13;9.05;;;5.78;;
80163;SDS011;70071;55.130;61.268;2024-01-25T13:00:39;11.07;;;5.88;;
80163;SDS011;70071;55.130;61.268;2024-01-25T13:03:05;10.52;;;4.95;;
80163;SDS011;70071;55.130;61.268;2024-01-25T13:05:31;10.77;;;5.25;;
80163;SDS011;70071;55.130;61.268;2024-01-25T13:08:00;6.72;;;4.25;;
80163;SDS011;70071;55.130;61.268;2024-01-25T13:10:28;6.28;;;3.50;;
80163;SDS011;70071;55.130;61.268;2024-01-25T13:12:54;6.43;;;3.38;;
80163;SDS011;70071;55.130;61.268;2024-01-25T13:15:20;6.68;;;3.38;;
80163;SDS011;70071;55.130;61.268;2024-01-25T13:17:46;6.13;;;3.10;;
80163;SDS011;70071;55.130;61.268;2024-01-25T13:20:12;7.35;;;3.42;;
80163;SDS011;70071;55.130;61.268;2024-01-25T13:22:38;6.03;;;3.75;;
80163;SDS011;70071;55.130;61.268;2024-01-25T13:25:04;6.90;;;3.72;;
80163;SDS011;70071;55.130;61.268;2024-01-25T13:27:32;6.82;;;3.20;;
80163;SDS011;70071;55.130;61.268;2024-01-25T13:29:58;5.32;;;3.00;;
80163;SDS011;70071;55.130;61.268;2024-01-25T13:32:24;6.93;;;3.40;;
80163;SDS011;70071;55.130;61.268;2024-01-25T13:34:50;5.70;;;3.65;;
80163;SDS011;70071;55.130;61.268;2024-01-25T13:37:16;7.35;;;3.85;;
80163;SDS011;70071;55.130;61.268;2024-01-25T13:39:42;8.38;;;3.58;;
80163;SDS011;70071;55.130;61.268;2024-01-25T13:42:08;9.10;;;4.72;;
80163;SDS011;70071;55.130;61.268;2024-01-25T13:44:34;9.63;;;5.00;;
80163;SDS011;70071;55.130;61.268;2024-01-25T13:47:00;9.73;;;5.07;;
80163;SDS011;70071;55.130;61.268;2024-01-25T13:49:27;9.43;;;5.35;;
80163;SDS011;70071;55.130;61.268;2024-01-25T13:51:53;8.90;;;5.18;;
80163;SDS011;70071;55.130;61.268;2024-01-25T13:54:19;12.02;;;7.97;;
80163;SDS011;70071;55.130;61.268;2024-01-25T13:56:45;13.48;;;6.72;;
80163;SDS011;70071;55.130;61.268;2024-01-25T13:59:11;13.90;;;7.53;;
80163;SDS011;70071;55.130;61.268;2024-01-25T14:01:37;14.75;;;6.95;;
80163;SDS011;70071;55.130;61.268;2024-01-25T14:04:03;12.10;;;7.15;;
80163;SDS011;70071;55.130;61.268;2024-01-25T14:06:29;16.55;;;8.02;;
80163;SDS011;70071;55.130;61.268;2024-01-25T14:08:55;11.93;;;7.55;;
80163;SDS011;70071;55.130;61.268;2024-01-25T14:11:21;13.02;;;7.57;;
80163;SDS011;70071;55.130;61.268;2024-01-25T14:13:47;13.18;;;6.65;;
80163;SDS011;70071;55.130;61.268;2024-01-25T14:16:13;19.35;;;10.07;;
80163;SDS011;70071;55.130;61.268;2024-01-25T14:18:42;15.48;;;7.20;;
80163;SDS011;70071;55.130;61.268;2024-01-25T14:23:35;15.05;;;7.30;;
80163;SDS011;70071;55.130;61.268;2024-01-25T14:26:01;10.05;;;6.25;;
80163;SDS011;70071;55.130;61.268;2024-01-25T14:28:28;9.25;;;5.15;;
80163;SDS011;70071;55.130;61.268;2024-01-25T14:30:54;10.02;;;5.30;;
80163;SDS011;70071;55.130;61.268;2024-01-25T14:33:20;13.02;;;6.10;;
80163;SDS011;70071;55.130;61.268;2024-01-25T14:35:46;13.85;;;6.88;;
80163;SDS011;70071;55.130;61.268;2024-01-25T14:38:12;9.85;;;6.38;;
80163;SDS011;70071;55.130;61.268;2024-01-25T14:40:38;10.48;;;4.75;;
80163;SDS011;70071;55.130;61.268;2024-01-25T14:43:04;7.30;;;5.03;;
80163;SDS011;70071;55.130;61.268;2024-01-25T14:45:30;8.35;;;4.70;;
80163;SDS011;70071;55.130;61.268;2024-01-25T14:47:56;8.13;;;4.53;;
80163;SDS011;70071;55.130;61.268;2024-01-25T14:50:23;11.45;;;6.13;;
80163;SDS011;70071;55.130;61.268;2024-01-25T14:52:49;7.95;;;4.68;;
80163;SDS011;70071;55.130;61.268;2024-01-25T14:55:15;8.40;;;3.88;;
80163;SDS011;70071;55.130;61.268;2024-01-25T14:58:03;5.90;;;3.60;;
80163;SDS011;70071;55.130;61.268;2024-01-25T15:00:29;6.85;;;4.05;;
80163;SDS011;70071;55.130;61.268;2024-01-25T15:02:55;8.82;;;4.72;;
80163;SDS011;70071;55.130;61.268;2024-01-25T15:08:06;8.52;;;4.45;;
80163;SDS011;70071;55.130;61.268;2024-01-25T15:10:32;12.52;;;5.63;;
80163;SDS011;70071;55.130;61.268;2024-01-25T15:12:58;10.40;;;6.20;;
80163;SDS011;70071;55.130;61.268;2024-01-25T15:15:25;15.40;;;7.38;;
80163;SDS011;70071;55.130;61.268;2024-01-25T15:17:53;16.48;;;8.20;;